Contralmirante Cordero, Argentina
Current Conditions -  °F | °C
As of 7:00 PM on Sunday 23 Nov 2014 (Local Time) from SAZN Reporting Station
Scattered Clouds Scattered Clouds  
Wind Chill: 73°   Ceiling: Unl
Heat Index: 73°   Visibility: 6mi
Dew Point: 27°   Wind: 14mph
Humidity: 18%   Direction: 230°SW
Pressure: 29.65"   Gusts: 28mph
Location:  38.73°S, 68.17°W
Report Text: SAZN 232200Z 23012G24KT 9999 SCT05023/M03 Q1004
Loading
Personal Weather Stations






























Interactive Weather Map New forecast layout! Learn more

10-Day Weather Forecast

Advertisements
Track Severe Weather on mobile